sensor_id;sensor_type;location;lat;lon;timestamp;pressure;altitude;pressure_sealevel;temperature;humidity
13709;BME280;54933;51.908;7.730;2022-10-31T00:01:25;101434.66;;;22.59;94.19
13709;BME280;54933;51.908;7.730;2022-10-31T00:03:51;101428.41;;;22.59;94.38
13709;BME280;54933;51.908;7.730;2022-10-31T00:06:17;101426.53;;;22.59;94.30
13709;BME280;54933;51.908;7.730;2022-10-31T00:08:47;101436.53;;;22.59;94.18
13709;BME280;54933;51.908;7.730;2022-10-31T00:11:16;101438.19;;;22.60;94.10
13709;BME280;54933;51.908;7.730;2022-10-31T00:13:41;101443.59;;;22.60;94.25
13709;BME280;54933;51.908;7.730;2022-10-31T00:16:13;101437.38;;;22.59;94.34
13709;BME280;54933;51.908;7.730;2022-10-31T00:18:39;101432.78;;;22.60;94.15
13709;BME280;54933;51.908;7.730;2022-10-31T00:21:04;101441.53;;;22.62;94.02
13709;BME280;54933;51.908;7.730;2022-10-31T00:23:29;101452.38;;;22.62;93.71
13709;BME280;54933;51.908;7.730;2022-10-31T00:26:02;101454.03;;;22.63;93.86
13709;BME280;54933;51.908;7.730;2022-10-31T00:28:28;101452.38;;;22.62;93.64
13709;BME280;54933;51.908;7.730;2022-10-31T00:30:58;101446.94;;;22.62;93.86
13709;BME280;54933;51.908;7.730;2022-10-31T00:33:23;101444.25;;;22.62;93.72
13709;BME280;54933;51.908;7.730;2022-10-31T00:35:49;101450.50;;;22.62;93.48
13709;BME280;54933;51.908;7.730;2022-10-31T00:38:15;101454.88;;;22.63;93.55
13709;BME280;54933;51.908;7.730;2022-10-31T00:40:40;101449.44;;;22.63;93.71
13709;BME280;54933;51.908;7.730;2022-10-31T00:43:05;101461.97;;;22.64;93.48
13709;BME280;54933;51.908;7.730;2022-10-31T00:45:31;101453.00;;;22.64;93.30
13709;BME280;54933;51.908;7.730;2022-10-31T00:47:56;101460.06;;;22.65;93.16
13709;BME280;54933;51.908;7.730;2022-10-31T00:50:21;101459.03;;;22.66;92.91
13709;BME280;54933;51.908;7.730;2022-10-31T00:52:46;101456.34;;;22.66;93.03
13709;BME280;54933;51.908;7.730;2022-10-31T00:55:12;101451.94;;;22.65;93.14
13709;BME280;54933;51.908;7.730;2022-10-31T00:57:37;101459.03;;;22.66;93.04
13709;BME280;54933;51.908;7.730;2022-10-31T01:00:03;101454.66;;;22.65;93.02
13709;BME280;54933;51.908;7.730;2022-10-31T01:02:28;101455.50;;;22.65;93.12
13709;BME280;54933;51.908;7.730;2022-10-31T01:04:53;101448.22;;;22.66;92.87
13709;BME280;54933;51.908;7.730;2022-10-31T01:07:19;101451.13;;;22.64;92.94
13709;BME280;54933;51.908;7.730;2022-10-31T01:09:44;101460.06;;;22.65;93.07
13709;BME280;54933;51.908;7.730;2022-10-31T01:12:09;101461.97;;;22.64;92.96
13709;BME280;54933;51.908;7.730;2022-10-31T01:14:34;101458.41;;;22.64;93.23
13709;BME280;54933;51.908;7.730;2022-10-31T01:17:00;101452.38;;;22.62;92.95
13709;BME280;54933;51.908;7.730;2022-10-31T01:19:25;101450.72;;;22.61;93.51
13709;BME280;54933;51.908;7.730;2022-10-31T01:21:54;101445.28;;;22.61;93.45
13709;BME280;54933;51.908;7.730;2022-10-31T01:24:20;101449.03;;;22.60;93.49
13709;BME280;54933;51.908;7.730;2022-10-31T01:26:45;101451.72;;;22.60;93.18
13709;BME280;54933;51.908;7.730;2022-10-31T01:29:10;101465.28;;;22.60;93.42
13709;BME280;54933;51.908;7.730;2022-10-31T01:31:38;101459.84;;;22.60;93.65
13709;BME280;54933;51.908;7.730;2022-10-31T01:34:05;101456.34;;;22.59;93.76
13709;BME280;54933;51.908;7.730;2022-10-31T01:36:34;101475.31;;;22.59;93.33
13709;BME280;54933;51.908;7.730;2022-10-31T01:39:05;101459.84;;;22.60;93.36
13709;BME280;54933;51.908;7.730;2022-10-31T01:41:33;101463.41;;;22.60;93.58
13709;BME280;54933;51.908;7.730;2022-10-31T01:44:00;101454.44;;;22.60;93.36
13709;BME280;54933;51.908;7.730;2022-10-31T01:46:34;101465.28;;;22.60;93.70
13709;BME280;54933;51.908;7.730;2022-10-31T01:49:04;101459.84;;;22.60;93.46
13709;BME280;54933;51.908;7.730;2022-10-31T01:51:33;101459.84;;;22.60;93.32
13709;BME280;54933;51.908;7.730;2022-10-31T01:54:04;101466.13;;;22.60;93.30
13709;BME280;54933;51.908;7.730;2022-10-31T01:56:31;101459.06;;;22.59;93.53
13709;BME280;54933;51.908;7.730;2022-10-31T01:58:59;101454.44;;;22.60;93.36
13709;BME280;54933;51.908;7.730;2022-10-31T02:01:26;101449.03;;;22.60;93.53
13709;BME280;54933;51.908;7.730;2022-10-31T02:03:52;101449.03;;;22.60;93.47
13709;BME280;54933;51.908;7.730;2022-10-31T02:06:38;101440.91;;;22.60;93.59
13709;BME280;54933;51.908;7.730;2022-10-31T02:09:05;101440.91;;;22.60;93.50
13709;BME280;54933;51.908;7.730;2022-10-31T02:11:31;101452.78;;;22.59;93.47
13709;BME280;54933;51.908;7.730;2022-10-31T02:13:58;101462.56;;;22.60;93.62
13709;BME280;54933;51.908;7.730;2022-10-31T02:16:25;101465.28;;;22.60;93.17
13709;BME280;54933;51.908;7.730;2022-10-31T02:18:50;101473.41;;;22.60;93.56
13709;BME280;54933;51.908;7.730;2022-10-31T02:22:05;101476.13;;;22.60;93.15
13709;BME280;54933;51.908;7.730;2022-10-31T02:37:51;101495.06;;;22.60;93.29
13709;BME280;54933;51.908;7.730;2022-10-31T02:40:31;101490.72;;;22.59;93.49
13709;BME280;54933;51.908;7.730;2022-10-31T02:43:21;101475.31;;;22.59;93.27
13709;BME280;54933;51.908;7.730;2022-10-31T02:45:59;101468.00;;;22.60;92.87
13709;BME280;54933;51.908;7.730;2022-10-31T02:48:28;101473.41;;;22.60;93.18
13709;BME280;54933;51.908;7.730;2022-10-31T02:50:57;101459.84;;;22.60;93.21
13709;BME280;54933;51.908;7.730;2022-10-31T02:53:24;101458.22;;;22.59;93.38
13709;BME280;54933;51.908;7.730;2022-10-31T02:56:01;101454.44;;;22.60;93.27
13709;BME280;54933;51.908;7.730;2022-10-31T02:58:31;101437.38;;;22.59;93.02
13709;BME280;54933;51.908;7.730;2022-10-31T03:06:21;101447.38;;;22.59;93.27
13709;BME280;54933;51.908;7.730;2022-10-31T03:08:58;101431.13;;;22.59;92.92
13709;BME280;54933;51.908;7.730;2022-10-31T03:11:45;101441.13;;;22.58;92.79
13709;BME280;54933;51.908;7.730;2022-10-31T03:14:36;101451.13;;;22.58;93.11
13709;BME280;54933;51.908;7.730;2022-10-31T03:17:05;101461.97;;;22.58;92.95
13709;BME280;54933;51.908;7.730;2022-10-31T03:19:41;101469.03;;;22.59;93.06
13709;BME280;54933;51.908;7.730;2022-10-31T03:22:15;101468.19;;;22.58;92.75
13709;BME280;54933;51.908;7.730;2022-10-31T03:24:41;101472.81;;;22.58;93.08
13709;BME280;54933;51.908;7.730;2022-10-31T03:27:10;101475.31;;;22.59;92.93
13709;BME280;54933;51.908;7.730;2022-10-31T03:29:38;101463.63;;;22.59;92.90
13709;BME280;54933;51.908;7.730;2022-10-31T03:32:08;101467.19;;;22.59;92.98
13709;BME280;54933;51.908;7.730;2022-10-31T03:34:37;101474.47;;;22.59;92.71
13709;BME280;54933;51.908;7.730;2022-10-31T03:37:07;101470.69;;;22.60;92.79
13709;BME280;54933;51.908;7.730;2022-10-31T03:39:34;101465.28;;;22.60;92.72
13709;BME280;54933;51.908;7.730;2022-10-31T03:42:11;101460.91;;;22.59;92.53
13709;BME280;54933;51.908;7.730;2022-10-31T03:44:41;101471.53;;;22.60;92.57
13709;BME280;54933;51.908;7.730;2022-10-31T03:47:08;101468.00;;;22.60;92.61
13709;BME280;54933;51.908;7.730;2022-10-31T03:49:34;101466.97;;;22.61;92.84
13709;BME280;54933;51.908;7.730;2022-10-31T03:52:18;101459.84;;;22.60;92.38
13709;BME280;54933;51.908;7.730;2022-10-31T03:54:47;101466.53;;;22.64;92.30
13709;BME280;54933;51.908;7.730;2022-10-31T04:00:16;101476.31;;;22.65;92.22
13709;BME280;54933;51.908;7.730;2022-10-31T04:02:50;101468.19;;;22.65;92.30
13709;BME280;54933;51.908;7.730;2022-10-31T04:05:17;101472.81;;;22.64;92.04
13709;BME280;54933;51.908;7.730;2022-10-31T04:07:46;101457.34;;;22.65;92.00
13709;BME280;54933;51.908;7.730;2022-10-31T04:10:16;101466.53;;;22.64;91.77
13709;BME280;54933;51.908;7.730;2022-10-31T04:12:45;101469.03;;;22.65;91.95
13709;BME280;54933;51.908;7.730;2022-10-31T04:15:13;101466.13;;;22.67;92.09
13709;BME280;54933;51.908;7.730;2022-10-31T04:17:40;101475.28;;;22.66;91.71
13709;BME280;54933;51.908;7.730;2022-10-31T04:20:07;101471.53;;;22.67;91.88
13709;BME280;54933;51.908;7.730;2022-10-31T04:22:33;101459.03;;;22.66;91.74
13709;BME280;54933;51.908;7.730;2022-10-31T04:24:58;101459.03;;;22.66;91.27
13709;BME280;54933;51.908;7.730;2022-10-31T04:27:23;101464.47;;;22.66;91.51
13709;BME280;54933;51.908;7.730;2022-10-31T04:29:49;101459.03;;;22.66;91.60
13709;BME280;54933;51.908;7.730;2022-10-31T04:32:14;101461.75;;;22.66;91.53
13709;BME280;54933;51.908;7.730;2022-10-31T04:34:39;101469.25;;;22.64;91.80
13709;BME280;54933;51.908;7.730;2022-10-31T04:37:04;101470.91;;;22.65;91.57
13709;BME280;54933;51.908;7.730;2022-10-31T04:39:30;101464.84;;;22.63;91.55
13709;BME280;54933;51.908;7.730;2022-10-31T04:41:55;101450.72;;;22.61;91.71
13709;BME280;54933;51.908;7.730;2022-10-31T04:44:20;101462.16;;;22.63;92.02
13709;BME280;54933;51.908;7.730;2022-10-31T04:46:45;101459.66;;;22.61;91.96
13709;BME280;54933;51.908;7.730;2022-10-31T04:49:11;101460.50;;;22.62;91.69
13709;BME280;54933;51.908;7.730;2022-10-31T04:51:36;101461.53;;;22.61;91.81
13709;BME280;54933;51.908;7.730;2022-10-31T04:54:01;101455.28;;;22.60;92.06
13709;BME280;54933;51.908;7.730;2022-10-31T04:56:27;101450.72;;;22.61;92.01
13709;BME280;54933;51.908;7.730;2022-10-31T04:58:52;101452.78;;;22.59;91.80
13709;BME280;54933;51.908;7.730;2022-10-31T05:01:17;101465.28;;;22.60;91.75
13709;BME280;54933;51.908;7.730;2022-10-31T05:03:42;101458.22;;;22.59;92.07
13709;BME280;54933;51.908;7.730;2022-10-31T05:06:08;101453.63;;;22.59;91.60
13709;BME280;54933;51.908;7.730;2022-10-31T05:08:33;101459.06;;;22.59;92.20
13709;BME280;54933;51.908;7.730;2022-10-31T05:11:02;101465.28;;;22.60;91.55
13709;BME280;54933;51.908;7.730;2022-10-31T05:13:28;101463.63;;;22.59;91.74
13709;BME280;54933;51.908;7.730;2022-10-31T05:15:53;101458.22;;;22.59;91.75
13709;BME280;54933;51.908;7.730;2022-10-31T05:18:19;101463.63;;;22.59;91.74
13709;BME280;54933;51.908;7.730;2022-10-31T05:20:44;101454.66;;;22.58;91.88
13709;BME280;54933;51.908;7.730;2022-10-31T05:23:09;101452.78;;;22.59;91.63
13709;BME280;54933;51.908;7.730;2022-10-31T05:25:35;101444.66;;;22.59;92.01
13709;BME280;54933;51.908;7.730;2022-10-31T05:28:00;101438.41;;;22.58;92.11
13709;BME280;54933;51.908;7.730;2022-10-31T05:30:29;101443.00;;;22.58;91.89
13709;BME280;54933;51.908;7.730;2022-10-31T05:32:54;101445.72;;;22.58;91.64
13709;BME280;54933;51.908;7.730;2022-10-31T05:35:22;101439.88;;;22.61;91.67
13709;BME280;54933;51.908;7.730;2022-10-31T05:37:48;101436.09;;;22.62;91.44
13709;BME280;54933;51.908;7.730;2022-10-31T05:40:14;101438.81;;;22.62;91.56
13709;BME280;54933;51.908;7.730;2022-10-31T05:42:41;101448.59;;;22.63;91.52
13709;BME280;54933;51.908;7.730;2022-10-31T05:45:08;101441.53;;;22.62;91.41
13709;BME280;54933;51.908;7.730;2022-10-31T05:47:34;101437.75;;;22.63;91.58
13709;BME280;54933;51.908;7.730;2022-10-31T05:49:59;101436.94;;;22.62;91.42
13709;BME280;54933;51.908;7.730;2022-10-31T05:52:25;101435.28;;;22.61;91.40
13709;BME280;54933;51.908;7.730;2022-10-31T05:54:50;101440.69;;;22.61;91.33
13709;BME280;54933;51.908;7.730;2022-10-31T05:57:15;101439.88;;;22.61;91.36
13709;BME280;54933;51.908;7.730;2022-10-31T05:59:40;101444.44;;;22.60;91.37
13709;BME280;54933;51.908;7.730;2022-10-31T06:02:05;101436.31;;;22.60;91.14
13709;BME280;54933;51.908;7.730;2022-10-31T06:04:31;101434.47;;;22.61;91.21
13709;BME280;54933;51.908;7.730;2022-10-31T06:06:57;101429.03;;;22.61;91.04
13709;BME280;54933;51.908;7.730;2022-10-31T06:09:22;101442.59;;;22.61;91.23
13709;BME280;54933;51.908;7.730;2022-10-31T06:11:47;101446.09;;;22.61;91.44
13709;BME280;54933;51.908;7.730;2022-10-31T06:14:13;101442.59;;;22.61;91.03
13709;BME280;54933;51.908;7.730;2022-10-31T06:16:38;101450.72;;;22.61;91.25
13709;BME280;54933;51.908;7.730;2022-10-31T06:19:03;101437.16;;;22.61;91.20
13709;BME280;54933;51.908;7.730;2022-10-31T06:21:29;101442.59;;;22.61;91.04
13709;BME280;54933;51.908;7.730;2022-10-31T06:23:54;101439.88;;;22.61;90.97
13709;BME280;54933;51.908;7.730;2022-10-31T06:26:19;101431.75;;;22.35;89.16
13709;BME280;54933;51.908;7.730;2022-10-31T06:28:44;101437.38;;;22.27;86.08
13709;BME280;54933;51.908;7.730;2022-10-31T06:31:10;101441.81;;;21.48;80.34
13709;BME280;54933;51.908;7.730;2022-10-31T06:33:35;101444.84;;;21.79;77.90
13709;BME280;54933;51.908;7.730;2022-10-31T06:36:00;101449.00;;;22.01;78.22
13709;BME280;54933;51.908;7.730;2022-10-31T06:38:26;101446.09;;;22.16;79.52
13709;BME280;54933;51.908;7.730;2022-10-31T06:40:52;101441.09;;;22.26;81.39
13709;BME280;54933;51.908;7.730;2022-10-31T06:43:18;101442.38;;;22.30;82.92
13709;BME280;54933;51.908;7.730;2022-10-31T06:45:43;101443.59;;;22.34;84.14
13709;BME280;54933;51.908;7.730;2022-10-31T06:48:08;101453.19;;;22.36;84.80
13709;BME280;54933;51.908;7.730;2022-10-31T06:50:34;101446.72;;;22.37;85.26
13709;BME280;54933;51.908;7.730;2022-10-31T06:52:59;101454.66;;;22.39;85.93
13709;BME280;54933;51.908;7.730;2022-10-31T06:55:25;101453.63;;;22.40;85.98
13709;BME280;54933;51.908;7.730;2022-10-31T06:57:59;101453.63;;;22.40;85.96
13709;BME280;54933;51.908;7.730;2022-10-31T07:00:26;101455.50;;;22.39;85.84
13709;BME280;54933;51.908;7.730;2022-10-31T07:03:00;101451.72;;;22.40;85.68
13709;BME280;54933;51.908;7.730;2022-10-31T07:05:26;101455.69;;;22.44;85.91
13709;BME280;54933;51.908;7.730;2022-10-31T07:08:01;101446.31;;;22.47;86.41
13709;BME280;54933;51.908;7.730;2022-10-31T07:10:29;101455.06;;;22.49;86.27
13709;BME280;54933;51.908;7.730;2022-10-31T07:12:56;101454.00;;;22.50;86.90
13709;BME280;54933;51.908;7.730;2022-10-31T07:15:22;101452.97;;;22.51;86.74
13709;BME280;54933;51.908;7.730;2022-10-31T07:17:48;101457.34;;;22.52;87.11
13709;BME280;54933;51.908;7.730;2022-10-31T07:20:13;101466.53;;;22.51;87.22
13709;BME280;54933;51.908;7.730;2022-10-31T07:22:38;101462.56;;;22.53;87.29
13709;BME280;54933;51.908;7.730;2022-10-31T07:25:04;101460.72;;;22.54;87.10
13709;BME280;54933;51.908;7.730;2022-10-31T07:27:37;101467.78;;;22.55;87.14
13709;BME280;54933;51.908;7.730;2022-10-31T07:30:04;101466.75;;;22.56;87.49
13709;BME280;54933;51.908;7.730;2022-10-31T07:32:42;101464.06;;;22.56;87.53
13709;BME280;54933;51.908;7.730;2022-10-31T07:35:10;101466.75;;;22.56;87.60
13709;BME280;54933;51.908;7.730;2022-10-31T07:37:36;101465.72;;;22.57;87.62
13709;BME280;54933;51.908;7.730;2022-10-31T07:40:03;101473.19;;;22.55;87.42
13709;BME280;54933;51.908;7.730;2022-10-31T07:42:29;101482.16;;;22.55;87.60
13709;BME280;54933;51.908;7.730;2022-10-31T07:44:54;101482.38;;;22.54;88.17
13709;BME280;54933;51.908;7.730;2022-10-31T07:47:20;101473.19;;;22.55;87.97
13709;BME280;54933;51.908;7.730;2022-10-31T07:49:45;101482.16;;;22.55;88.24
13709;BME280;54933;51.908;7.730;2022-10-31T07:52:10;101472.38;;;22.35;85.16
13709;BME280;54933;51.908;7.730;2022-10-31T07:54:36;101478.81;;;22.40;84.48
13709;BME280;54933;51.908;7.730;2022-10-31T07:57:01;101482.78;;;22.44;84.97
13709;BME280;54933;51.908;7.730;2022-10-31T07:59:26;101478.81;;;22.47;85.43
13709;BME280;54933;51.908;7.730;2022-10-31T08:01:52;101478.59;;;22.48;86.25
13709;BME280;54933;51.908;7.730;2022-10-31T08:04:17;101476.50;;;22.50;86.20
13709;BME280;54933;51.908;7.730;2022-10-31T08:06:42;101460.25;;;22.50;86.74
13709;BME280;54933;51.908;7.730;2022-10-31T08:09:08;101462.34;;;22.42;86.40
13709;BME280;54933;51.908;7.730;2022-10-31T08:11:33;101461.31;;;22.04;82.36
13709;BME280;54933;51.908;7.730;2022-10-31T08:13:58;101467.16;;;22.14;81.64
13709;BME280;54933;51.908;7.730;2022-10-31T08:16:23;101460.06;;;22.26;82.11
13709;BME280;54933;51.908;7.730;2022-10-31T08:18:49;101447.38;;;22.33;82.73
13709;BME280;54933;51.908;7.730;2022-10-31T08:21:14;101461.97;;;22.38;83.23
13709;BME280;54933;51.908;7.730;2022-10-31T08:23:39;101450.69;;;22.41;83.62
13709;BME280;54933;51.908;7.730;2022-10-31T08:26:04;101453.19;;;22.43;84.34
13709;BME280;54933;51.908;7.730;2022-10-31T08:28:31;101445.69;;;22.45;84.36
13709;BME280;54933;51.908;7.730;2022-10-31T08:30:57;101438.19;;;22.47;84.63
13709;BME280;54933;51.908;7.730;2022-10-31T08:33:23;101441.94;;;22.46;84.68
13709;BME280;54933;51.908;7.730;2022-10-31T08:35:48;101441.94;;;22.46;85.25
13709;BME280;54933;51.908;7.730;2022-10-31T08:38:13;101440.28;;;22.45;85.51
13709;BME280;54933;51.908;7.730;2022-10-31T08:40:39;101437.38;;;22.46;85.22
13709;BME280;54933;51.908;7.730;2022-10-31T08:43:13;101426.53;;;22.46;85.85
13709;BME280;54933;51.908;7.730;2022-10-31T08:45:39;101422.97;;;22.46;86.53
13709;BME280;54933;51.908;7.730;2022-10-31T08:48:09;101432.75;;;22.47;86.40
13709;BME280;54933;51.908;7.730;2022-10-31T08:50:35;101431.75;;;22.48;86.64
13709;BME280;54933;51.908;7.730;2022-10-31T08:53:05;101428.19;;;22.47;86.72
13709;BME280;54933;51.908;7.730;2022-10-31T08:55:35;101430.06;;;22.47;87.01
13709;BME280;54933;51.908;7.730;2022-10-31T08:58:01;101434.22;;;22.49;87.14
13709;BME280;54933;51.908;7.730;2022-10-31T09:00:27;101438.81;;;22.49;87.56
13709;BME280;54933;51.908;7.730;2022-10-31T09:02:56;101446.94;;;22.49;87.57
13709;BME280;54933;51.908;7.730;2022-10-31T09:05:22;101441.50;;;22.49;87.32
13709;BME280;54933;51.908;7.730;2022-10-31T09:07:47;101432.34;;;22.50;87.53
13709;BME280;54933;51.908;7.730;2022-10-31T09:10:12;101437.75;;;22.50;87.72
13709;BME280;54933;51.908;7.730;2022-10-31T09:12:37;101439.44;;;22.51;87.93
13709;BME280;54933;51.908;7.730;2022-10-31T09:15:03;101439.44;;;22.51;87.76
13709;BME280;54933;51.908;7.730;2022-10-31T09:17:31;101436.72;;;22.51;87.71
13709;BME280;54933;51.908;7.730;2022-10-31T09:19:56;101442.81;;;22.53;87.91
13709;BME280;54933;51.908;7.730;2022-10-31T09:22:22;101440.09;;;22.53;88.02
13709;BME280;54933;51.908;7.730;2022-10-31T09:24:47;101438.19;;;22.53;88.17
13709;BME280;54933;51.908;7.730;2022-10-31T09:27:12;101435.28;;;22.55;87.92
13709;BME280;54933;51.908;7.730;2022-10-31T09:29:37;101432.56;;;22.55;87.96
13709;BME280;54933;51.908;7.730;2022-10-31T09:32:03;101438.84;;;22.55;88.00
13709;BME280;54933;51.908;7.730;2022-10-31T09:34:28;101434.25;;;22.56;87.98
13709;BME280;54933;51.908;7.730;2022-10-31T09:36:53;101435.91;;;22.57;87.86
13709;BME280;54933;51.908;7.730;2022-10-31T09:39:19;101434.88;;;22.58;87.98
13709;BME280;54933;51.908;7.730;2022-10-31T09:42:15;101424.22;;;22.56;88.04
13709;BME280;54933;51.908;7.730;2022-10-31T09:48:02;101425.06;;;22.57;88.34
13709;BME280;54933;51.908;7.730;2022-10-31T09:53:32;101416.94;;;22.57;88.29
13709;BME280;54933;51.908;7.730;2022-10-31T09:56:00;101412.59;;;22.56;88.73
13709;BME280;54933;51.908;7.730;2022-10-31T09:58:28;101411.75;;;22.55;88.83
13709;BME280;54933;51.908;7.730;2022-10-31T10:00:58;101404.47;;;22.56;88.74
13709;BME280;54933;51.908;7.730;2022-10-31T10:03:45;101410.91;;;22.55;88.68
13709;BME280;54933;51.908;7.730;2022-10-31T10:06:27;101411.97;;;22.54;88.77
13709;BME280;54933;51.908;7.730;2022-10-31T10:08:53;101401.13;;;22.54;89.17
13709;BME280;54933;51.908;7.730;2022-10-31T10:11:35;101400.06;;;22.55;89.28
13709;BME280;54933;51.908;7.730;2022-10-31T10:14:14;101395.72;;;22.54;89.52
13709;BME280;54933;51.908;7.730;2022-10-31T10:20:02;101391.13;;;22.54;89.40
13709;BME280;54933;51.908;7.730;2022-10-31T10:28:10;101387.16;;;22.57;89.27
13709;BME280;54933;51.908;7.730;2022-10-31T10:30:45;101386.53;;;22.55;89.07
13709;BME280;54933;51.908;7.730;2022-10-31T10:33:18;101377.59;;;22.54;89.26
13709;BME280;54933;51.908;7.730;2022-10-31T10:35:50;101383.22;;;22.53;89.20
13709;BME280;54933;51.908;7.730;2022-10-31T10:38:27;101376.97;;;22.52;88.81
13709;BME280;54933;51.908;7.730;2022-10-31T10:40:54;101371.53;;;22.52;88.68
13709;BME280;54933;51.908;7.730;2022-10-31T10:43:23;101365.25;;;22.52;88.93
13709;BME280;54933;51.908;7.730;2022-10-31T10:46:14;101363.59;;;22.51;88.73
13709;BME280;54933;51.908;7.730;2022-10-31T10:55:15;101363.59;;;22.51;88.49
13709;BME280;54933;51.908;7.730;2022-10-31T10:57:55;101348.38;;;22.50;88.54
13709;BME280;54933;51.908;7.730;2022-10-31T11:00:27;101357.34;;;22.50;88.57
13709;BME280;54933;51.908;7.730;2022-10-31T11:02:54;101344.84;;;22.49;88.57
13709;BME280;54933;51.908;7.730;2022-10-31T11:08:04;101340.13;;;22.32;85.61
13709;BME280;54933;51.908;7.730;2022-10-31T11:10:30;101339.91;;;22.27;83.98
13709;BME280;54933;51.908;7.730;2022-10-31T11:15:36;101324.91;;;22.18;82.89
13709;BME280;54933;51.908;7.730;2022-10-31T11:18:02;101320.78;;;22.15;83.21
13709;BME280;54933;51.908;7.730;2022-10-31T11:20:32;101313.47;;;22.16;83.06
13709;BME280;54933;51.908;7.730;2022-10-31T11:23:17;101309.53;;;22.18;82.85
13709;BME280;54933;51.908;7.730;2022-10-31T11:26:00;101308.28;;;22.01;81.81
13709;BME280;54933;51.908;7.730;2022-10-31T11:28:26;101303.31;;;21.79;80.59
13709;BME280;54933;51.908;7.730;2022-10-31T11:30:56;101301.41;;;21.60;80.50
13709;BME280;54933;51.908;7.730;2022-10-31T11:33:29;101298.72;;;21.46;81.18
13709;BME280;54933;51.908;7.730;2022-10-31T11:35:56;101289.75;;;21.52;81.45
13709;BME280;54933;51.908;7.730;2022-10-31T11:38:25;101282.06;;;21.76;82.27
13709;BME280;54933;51.908;7.730;2022-10-31T11:40:53;101279.59;;;21.94;82.74
13709;BME280;54933;51.908;7.730;2022-10-31T11:43:19;101276.22;;;22.05;83.05
13709;BME280;54933;51.908;7.730;2022-10-31T11:45:45;101264.94;;;22.14;83.91
13709;BME280;54933;51.908;7.730;2022-10-31T11:48:19;101262.00;;;22.22;84.50
13709;BME280;54933;51.908;7.730;2022-10-31T11:50:51;101253.28;;;22.27;84.83
13709;BME280;54933;51.908;7.730;2022-10-31T11:53:29;101252.00;;;22.29;85.45
13709;BME280;54933;51.908;7.730;2022-10-31T11:56:14;101252.41;;;22.33;85.95
13709;BME280;54933;51.908;7.730;2022-10-31T11:58:40;101251.97;;;22.36;86.13
13709;BME280;54933;51.908;7.730;2022-10-31T12:01:23;101245.78;;;22.16;84.57
13709;BME280;54933;51.908;7.730;2022-10-31T12:04:08;101242.56;;;21.88;82.10
13709;BME280;54933;51.908;7.730;2022-10-31T12:06:39;101240.44;;;21.70;81.34
13709;BME280;54933;51.908;7.730;2022-10-31T12:11:50;101228.41;;;21.46;81.21
13709;BME280;54933;51.908;7.730;2022-10-31T12:14:32;101223.84;;;21.40;81.73
13709;BME280;54933;51.908;7.730;2022-10-31T12:17:08;101204.72;;;21.35;81.68
13709;BME280;54933;51.908;7.730;2022-10-31T12:19:47;101199.31;;;21.35;81.76
13709;BME280;54933;51.908;7.730;2022-10-31T12:22:30;101190.34;;;21.41;82.24
13709;BME280;54933;51.908;7.730;2022-10-31T12:27:58;101165.97;;;21.81;82.41
13709;BME280;54933;51.908;7.730;2022-10-31T12:30:50;101156.75;;;21.95;82.62
13709;BME280;54933;51.908;7.730;2022-10-31T12:34:19;101151.53;;;22.00;82.73
13709;BME280;54933;51.908;7.730;2022-10-31T12:36:21;101130.91;;;22.05;83.33
13709;BME280;54933;51.908;7.730;2022-10-31T12:44:21;101196.16;;;21.65;82.34
13709;BME280;54933;51.908;7.730;2022-10-31T12:47:01;101196.78;;;21.80;82.35
13709;BME280;54933;51.908;7.730;2022-10-31T12:52:43;101187.34;;;22.02;83.59
13709;BME280;54933;51.908;7.730;2022-10-31T12:57:56;101187.31;;;22.08;84.56
13709;BME280;54933;51.908;7.730;2022-10-31T13:00:24;101176.91;;;22.12;84.98
13709;BME280;54933;51.908;7.730;2022-10-31T13:03:17;101160.44;;;22.13;85.45
13709;BME280;54933;51.908;7.730;2022-10-31T13:05:52;101147.53;;;22.15;85.74
13709;BME280;54933;51.908;7.730;2022-10-31T13:08:33;101127.13;;;22.13;85.38
13709;BME280;54933;51.908;7.730;2022-10-31T13:11:24;101123.41;;;22.14;85.91
13709;BME280;54933;51.908;7.730;2022-10-31T13:16:30;101124.00;;;22.16;86.39
13709;BME280;54933;51.908;7.730;2022-10-31T13:19:17;101117.53;;;22.17;86.96
13709;BME280;54933;51.908;7.730;2022-10-31T13:24:43;101101.94;;;22.19;87.08
13709;BME280;54933;51.908;7.730;2022-10-31T13:30:14;101097.09;;;22.21;87.41
13709;BME280;54933;51.908;7.730;2022-10-31T13:35:18;101089.81;;;22.21;87.66
13709;BME280;54933;51.908;7.730;2022-10-31T13:37:50;101085.47;;;22.20;87.69
13709;BME280;54933;51.908;7.730;2022-10-31T13:45:54;101070.88;;;22.21;87.65
13709;BME280;54933;51.908;7.730;2022-10-31T13:48:34;101088.75;;;22.22;87.91
13709;BME280;54933;51.908;7.730;2022-10-31T13:51:06;101070.88;;;22.21;87.70
13709;BME280;54933;51.908;7.730;2022-10-31T13:58:58;101047.94;;;22.24;88.34
13709;BME280;54933;51.908;7.730;2022-10-31T14:01:25;101039.81;;;22.24;88.36
13709;BME280;54933;51.908;7.730;2022-10-31T14:04:02;101031.69;;;22.24;88.64
13709;BME280;54933;51.908;7.730;2022-10-31T14:06:41;101033.38;;;22.25;88.38
13709;BME280;54933;51.908;7.730;2022-10-31T14:09:22;101026.28;;;22.24;88.81
13709;BME280;54933;51.908;7.730;2022-10-31T14:11:49;101022.53;;;22.25;88.72
13709;BME280;54933;51.908;7.730;2022-10-31T14:14:17;101030.44;;;22.26;88.80
13709;BME280;54933;51.908;7.730;2022-10-31T14:16:44;101029.59;;;22.26;88.74
13709;BME280;54933;51.908;7.730;2022-10-31T14:19:18;101025.03;;;22.26;88.81
13709;BME280;54933;51.908;7.730;2022-10-31T14:21:46;101023.16;;;22.27;88.89
13709;BME280;54933;51.908;7.730;2022-10-31T14:26:57;101017.31;;;21.99;87.13
13709;BME280;54933;51.908;7.730;2022-10-31T14:29:32;101005.16;;;22.08;86.67
13709;BME280;54933;51.908;7.730;2022-10-31T14:32:03;100991.97;;;21.87;85.26